logo
Rechercher aéroport 
image banner adimage banner adimage banner ad
image banner ad

KAVX - Catalina

Situé à Avalon, United States

ICAO - AVX, IATA - CIB

Données fournies par Airmate  

Information générale

Coordonnées: N33°24'18" W118°24'57"
Élévation : 1602 feet MSL.
Variation magnétique : 14° East
Évalué:
Voir évaluations:
[VIEW]
Voir autres Aéroports à California

Données opérationnelles

Special qualification required
Heure actuelle UTC:
Heure actuelle locale:
Météo
METAR: KAVX 081251Z AUTO 04004KT 9SM FEW003 BKN008 BKN013 09/08 A3027 RMK AO2 CIG 005V009 SLP252 T00890078 $
Voir NOTAMs / SUP AIP / TFR affectant cet aéroport [VIEW]
Fréquences de communication: [VIEW]

Pistes:

Identifiant RWYQFULongueur (ft)Largeur (ft)SurfaceLDA (ft)
0455°300075CONC
22235°300075CONC

Coordonnées de l'aéroport

Adresse: Avalon United States

Vue satellite de KAVX